sensor_id;sensor_type;location;lat;lon;timestamp;pressure;altitude;pressure_sealevel;temperature;humidity
5872;BME280;2962;51.312;7.378;2023-04-01T00:00:48;95307.13;;;6.44;100.00
5872;BME280;2962;51.312;7.378;2023-04-01T00:03:14;95297.84;;;6.45;100.00
5872;BME280;2962;51.312;7.378;2023-04-01T00:05:39;95314.06;;;6.41;100.00
5872;BME280;2962;51.312;7.378;2023-04-01T00:08:04;95306.72;;;6.42;100.00
5872;BME280;2962;51.312;7.378;2023-04-01T00:10:29;95308.66;;;6.45;100.00
5872;BME280;2962;51.312;7.378;2023-04-01T00:12:55;95295.97;;;6.31;100.00
5872;BME280;2962;51.312;7.378;2023-04-01T00:15:20;95311.78;;;6.32;100.00
5872;BME280;2962;51.312;7.378;2023-04-01T00:17:45;95291.72;;;6.30;100.00
5872;BME280;2962;51.312;7.378;2023-04-01T00:20:11;95312.13;;;6.45;100.00
5872;BME280;2962;51.312;7.378;2023-04-01T00:22:37;95307.13;;;6.40;100.00
5872;BME280;2962;51.312;7.378;2023-04-01T00:25:03;95302.13;;;6.35;100.00
5872;BME280;2962;51.312;7.378;2023-04-01T00:27:29;95294.75;;;6.43;100.00
5872;BME280;2962;51.312;7.378;2023-04-01T00:29:55;95302.06;;;6.49;100.00
5872;BME280;2962;51.312;7.378;2023-04-01T00:32:20;95298.25;;;6.36;100.00
5872;BME280;2962;51.312;7.378;2023-04-01T00:34:45;95245.84;;;6.05;100.00
5872;BME280;2962;51.312;7.378;2023-04-01T00:37:10;95291.72;;;6.30;100.00
5872;BME280;2962;51.312;7.378;2023-04-01T00:39:36;95304.06;;;6.34;100.00
5872;BME280;2962;51.312;7.378;2023-04-01T00:42:03;95288.63;;;6.28;100.00
5872;BME280;2962;51.312;7.378;2023-04-01T00:44:31;95287.13;;;6.23;100.00
5872;BME280;2962;51.312;7.378;2023-04-01T00:46:58;95290.91;;;6.36;100.00
5872;BME280;2962;51.312;7.378;2023-04-01T00:49:30;95301.72;;;6.36;100.00
5872;BME280;2962;51.312;7.378;2023-04-01T00:51:59;95292.84;;;6.36;100.00
5872;BME280;2962;51.312;7.378;2023-04-01T00:54:26;95302.50;;;6.33;100.00
5872;BME280;2962;51.312;7.378;2023-04-01T00:57:02;95297.50;;;6.35;100.00
5872;BME280;2962;51.312;7.378;2023-04-01T00:59:34;95297.06;;;6.41;100.00
5872;BME280;2962;51.312;7.378;2023-04-01T01:02:03;95294.03;;;6.35;100.00
5872;BME280;2962;51.312;7.378;2023-04-01T01:04:30;95272.84;;;6.16;100.00
5872;BME280;2962;51.312;7.378;2023-04-01T01:12:20;95285.53;;;6.33;100.00
5872;BME280;2962;51.312;7.378;2023-04-01T01:15:12;95298.59;;;6.42;100.00
5872;BME280;2962;51.312;7.378;2023-04-01T01:26:44;95285.50;;;6.40;100.00
5872;BME280;2962;51.312;7.378;2023-04-01T01:29:16;95282.81;;;6.36;100.00
5872;BME280;2962;51.312;7.378;2023-04-01T01:37:13;95263.50;;;6.38;100.00
5872;BME280;2962;51.312;7.378;2023-04-01T01:39:42;95273.22;;;6.21;100.00
5872;BME280;2962;51.312;7.378;2023-04-01T01:42:11;95285.50;;;6.36;100.00
5872;BME280;2962;51.312;7.378;2023-04-01T01:44:39;95290.16;;;6.36;100.00
5872;BME280;2962;51.312;7.378;2023-04-01T01:47:06;95285.91;;;6.39;100.00
5872;BME280;2962;51.312;7.378;2023-04-01T01:49:33;95275.09;;;6.35;100.00
5872;BME280;2962;51.312;7.378;2023-04-01T01:52:00;95272.75;;;6.33;100.00
5872;BME280;2962;51.312;7.378;2023-04-01T01:54:25;95250.84;;;6.10;100.00
5872;BME280;2962;51.312;7.378;2023-04-01T01:56:55;95277.03;;;6.34;100.00
5872;BME280;2962;51.312;7.378;2023-04-01T01:59:26;95268.16;;;6.30;100.00
5872;BME280;2962;51.312;7.378;2023-04-01T02:01:54;95273.94;;;6.32;100.00
5872;BME280;2962;51.312;7.378;2023-04-01T02:04:21;95270.50;;;6.21;100.00
5872;BME280;2962;51.312;7.378;2023-04-01T02:06:58;95289.00;;;6.33;100.00
5872;BME280;2962;51.312;7.378;2023-04-01T02:09:26;95296.75;;;6.24;100.00
5872;BME280;2962;51.312;7.378;2023-04-01T02:11:56;95278.16;;;6.33;100.00
5872;BME280;2962;51.312;7.378;2023-04-01T02:14:26;95283.97;;;6.32;100.00
5872;BME280;2962;51.312;7.378;2023-04-01T02:17:07;95293.63;;;6.36;100.00
5872;BME280;2962;51.312;7.378;2023-04-01T02:19:37;95297.09;;;6.37;100.00
5872;BME280;2962;51.312;7.378;2023-04-01T02:22:07;95268.97;;;6.20;100.00
5872;BME280;2962;51.312;7.378;2023-04-01T02:24:35;95294.03;;;6.35;100.00
5872;BME280;2962;51.312;7.378;2023-04-01T02:27:01;95286.28;;;6.33;100.00
5872;BME280;2962;51.312;7.378;2023-04-01T02:29:27;95282.09;;;6.18;100.00
5872;BME280;2962;51.312;7.378;2023-04-01T02:31:53;95286.31;;;6.26;100.00
5872;BME280;2962;51.312;7.378;2023-04-01T02:34:21;95279.03;;;6.20;100.00
5872;BME280;2962;51.312;7.378;2023-04-01T02:36:49;95272.84;;;6.19;100.00
5872;BME280;2962;51.312;7.378;2023-04-01T02:39:15;95282.50;;;6.20;100.00
5872;BME280;2962;51.312;7.378;2023-04-01T02:41:42;95289.41;;;6.28;100.00
5872;BME280;2962;51.312;7.378;2023-04-01T02:44:09;95274.00;;;6.15;100.00
5872;BME280;2962;51.312;7.378;2023-04-01T02:46:35;95256.66;;;6.12;100.00
5872;BME280;2962;51.312;7.378;2023-04-01T02:49:01;95251.59;;;6.18;100.00
5872;BME280;2962;51.312;7.378;2023-04-01T02:51:26;95268.59;;;6.18;100.00
5872;BME280;2962;51.312;7.378;2023-04-01T02:53:51;95271.69;;;6.17;100.00
5872;BME280;2962;51.312;7.378;2023-04-01T02:56:17;95273.97;;;6.25;100.00
5872;BME280;2962;51.312;7.378;2023-04-01T02:58:42;95279.00;;;6.27;100.00
5872;BME280;2962;51.312;7.378;2023-04-01T03:01:07;95271.69;;;6.17;100.00
5872;BME280;2962;51.312;7.378;2023-04-01T03:03:33;95258.94;;;6.17;100.00
5872;BME280;2962;51.312;7.378;2023-04-01T03:06:04;95270.13;;;6.23;100.00
5872;BME280;2962;51.312;7.378;2023-04-01T03:08:30;95282.84;;;6.22;100.00
5872;BME280;2962;51.312;7.378;2023-04-01T03:10:55;95278.63;;;6.21;100.00
5872;BME280;2962;51.312;7.378;2023-04-01T03:13:20;95272.47;;;6.14;100.00
5872;BME280;2962;51.312;7.378;2023-04-01T03:15:45;95277.13;;;6.06;100.00
5872;BME280;2962;51.312;7.378;2023-04-01T03:18:11;95260.91;;;6.06;100.00
5872;BME280;2962;51.312;7.378;2023-04-01T03:20:36;95260.94;;;5.99;100.00
5872;BME280;2962;51.312;7.378;2023-04-01T03:23:01;95272.91;;;6.01;100.00
5872;BME280;2962;51.312;7.378;2023-04-01T03:25:26;95266.34;;;5.95;100.00
5872;BME280;2962;51.312;7.378;2023-04-01T03:27:53;95287.97;;;5.95;100.00
5872;BME280;2962;51.312;7.378;2023-04-01T03:30:18;95287.19;;;5.95;100.00
5872;BME280;2962;51.312;7.378;2023-04-01T03:32:44;95273.31;;;6.00;100.00
5872;BME280;2962;51.312;7.378;2023-04-01T03:35:09;95296.84;;;5.99;100.00
5872;BME280;2962;51.312;7.378;2023-04-01T03:37:35;95289.88;;;6.02;100.00
5872;BME280;2962;51.312;7.378;2023-04-01T03:40:00;95271.38;;;5.90;100.00
5872;BME280;2962;51.312;7.378;2023-04-01T03:42:26;95264.78;;;5.91;100.00
5872;BME280;2962;51.312;7.378;2023-04-01T03:44:51;95286.44;;;5.98;100.00
5872;BME280;2962;51.312;7.378;2023-04-01T03:47:16;95255.56;;;5.84;100.00
5872;BME280;2962;51.312;7.378;2023-04-01T03:49:42;95254.41;;;5.93;100.00
5872;BME280;2962;51.312;7.378;2023-04-01T03:52:10;95290.28;;;6.07;100.00
5872;BME280;2962;51.312;7.378;2023-04-01T03:54:35;95281.78;;;5.98;100.00
5872;BME280;2962;51.312;7.378;2023-04-01T03:57:01;95286.81;;;6.00;100.00
5872;BME280;2962;51.312;7.378;2023-04-01T03:59:26;95289.47;;;6.03;100.00
5872;BME280;2962;51.312;7.378;2023-04-01T04:01:51;95293.34;;;6.02;100.00
5872;BME280;2962;51.312;7.378;2023-04-01T04:04:17;95285.22;;;6.09;100.00
5872;BME280;2962;51.312;7.378;2023-04-01T04:06:42;95297.19;;;6.19;100.00
5872;BME280;2962;51.312;7.378;2023-04-01T04:09:08;95297.19;;;6.16;100.00
5872;BME280;2962;51.312;7.378;2023-04-01T04:11:33;95308.78;;;6.16;100.00
5872;BME280;2962;51.312;7.378;2023-04-01T04:13:59;95309.94;;;6.11;100.00
5872;BME280;2962;51.312;7.378;2023-04-01T04:16:24;95301.44;;;6.09;100.00
5872;BME280;2962;51.312;7.378;2023-04-01T04:18:49;95314.53;;;6.22;100.00
5872;BME280;2962;51.312;7.378;2023-04-01T04:21:16;95291.41;;;6.10;100.00
5872;BME280;2962;51.312;7.378;2023-04-01T04:23:42;95315.72;;;6.17;100.00
5872;BME280;2962;51.312;7.378;2023-04-01T04:26:13;95298.31;;;6.18;100.00
5872;BME280;2962;51.312;7.378;2023-04-01T04:28:39;95317.63;;;6.20;100.00
5872;BME280;2962;51.312;7.378;2023-04-01T04:31:04;95319.56;;;6.23;100.00
5872;BME280;2962;51.312;7.378;2023-04-01T04:33:30;95302.22;;;6.14;100.00
5872;BME280;2962;51.312;7.378;2023-04-01T04:35:56;95313.78;;;6.18;100.00
5872;BME280;2962;51.312;7.378;2023-04-01T04:38:22;95323.81;;;6.24;100.00
5872;BME280;2962;51.312;7.378;2023-04-01T04:40:47;95330.75;;;6.25;100.00
5872;BME280;2962;51.312;7.378;2023-04-01T04:43:14;95309.91;;;6.22;100.00
5872;BME280;2962;51.312;7.378;2023-04-01T04:45:40;95326.53;;;6.14;100.00
5872;BME280;2962;51.312;7.378;2023-04-01T04:48:08;95326.50;;;6.24;100.00
5872;BME280;2962;51.312;7.378;2023-04-01T04:50:34;95332.66;;;6.28;100.00
5872;BME280;2962;51.312;7.378;2023-04-01T04:52:59;95332.28;;;6.30;100.00
5872;BME280;2962;51.312;7.378;2023-04-01T04:55:24;95317.22;;;6.22;100.00
5872;BME280;2962;51.312;7.378;2023-04-01T04:57:50;95331.13;;;6.31;100.00
5872;BME280;2962;51.312;7.378;2023-04-01T05:00:15;95322.63;;;6.29;100.00
5872;BME280;2962;51.312;7.378;2023-04-01T05:02:41;95322.63;;;6.32;100.00
5872;BME280;2962;51.312;7.378;2023-04-01T05:05:07;95308.34;;;6.25;100.00
5872;BME280;2962;51.312;7.378;2023-04-01T05:07:33;95331.09;;;6.38;100.00
5872;BME280;2962;51.312;7.378;2023-04-01T05:09:58;95323.75;;;6.39;100.00
5872;BME280;2962;51.312;7.378;2023-04-01T05:12:24;95334.22;;;6.29;100.00
5872;BME280;2962;51.312;7.378;2023-04-01T05:14:49;95321.47;;;6.26;100.00
5872;BME280;2962;51.312;7.378;2023-04-01T05:17:15;95331.88;;;6.39;100.00
5872;BME280;2962;51.312;7.378;2023-04-01T05:19:40;95324.16;;;6.33;100.00
5872;BME280;2962;51.312;7.378;2023-04-01T05:22:05;95341.13;;;6.34;100.00
5872;BME280;2962;51.312;7.378;2023-04-01T05:24:32;95345.75;;;6.41;100.00
5872;BME280;2962;51.312;7.378;2023-04-01T05:26:57;95353.88;;;6.44;100.00
5872;BME280;2962;51.312;7.378;2023-04-01T05:29:24;95339.19;;;6.42;100.00
5872;BME280;2962;51.312;7.378;2023-04-01T05:31:49;95344.25;;;6.36;100.00
5872;BME280;2962;51.312;7.378;2023-04-01T05:34:15;95354.28;;;6.39;100.00
5872;BME280;2962;51.312;7.378;2023-04-01T05:36:40;95334.19;;;6.36;100.00
5872;BME280;2962;51.312;7.378;2023-04-01T05:39:06;95356.97;;;6.43;100.00
5872;BME280;2962;51.312;7.378;2023-04-01T05:41:34;95355.00;;;6.50;100.00
5872;BME280;2962;51.312;7.378;2023-04-01T05:44:00;95341.97;;;6.27;100.00
5872;BME280;2962;51.312;7.378;2023-04-01T05:46:25;95333.84;;;6.24;100.00
5872;BME280;2962;51.312;7.378;2023-04-01T05:48:50;95353.53;;;6.31;100.00
5872;BME280;2962;51.312;7.378;2023-04-01T05:51:16;95361.63;;;6.42;100.00
5872;BME280;2962;51.312;7.378;2023-04-01T05:53:41;95344.25;;;6.32;100.00
5872;BME280;2962;51.312;7.378;2023-04-01T05:56:07;95368.13;;;6.52;100.00
5872;BME280;2962;51.312;7.378;2023-04-01T05:58:34;95351.94;;;6.38;100.00
5872;BME280;2962;51.312;7.378;2023-04-01T06:01:04;95357.34;;;6.41;100.00
5872;BME280;2962;51.312;7.378;2023-04-01T06:03:30;95362.00;;;6.41;100.00
5872;BME280;2962;51.312;7.378;2023-04-01T06:05:55;95335.72;;;6.38;100.00
5872;BME280;2962;51.312;7.378;2023-04-01T06:08:21;95370.50;;;6.43;100.00
5872;BME280;2962;51.312;7.378;2023-04-01T06:16:36;95360.44;;;6.43;100.00
5872;BME280;2962;51.312;7.378;2023-04-01T06:22:22;95369.72;;;6.46;100.00
5872;BME280;2962;51.312;7.378;2023-04-01T06:25:10;95369.31;;;6.51;100.00
5872;BME280;2962;51.312;7.378;2023-04-01T06:30:55;95376.66;;;6.54;100.00
5872;BME280;2962;51.312;7.378;2023-04-01T06:33:37;95388.56;;;6.67;100.00
5872;BME280;2962;51.312;7.378;2023-04-01T06:36:31;95393.22;;;6.67;100.00
5872;BME280;2962;51.312;7.378;2023-04-01T06:44:52;95391.69;;;6.62;100.00
5872;BME280;2962;51.312;7.378;2023-04-01T06:47:48;95391.28;;;6.64;100.00
5872;BME280;2962;51.312;7.378;2023-04-01T06:58:26;95395.13;;;6.70;100.00
5872;BME280;2962;51.312;7.378;2023-04-01T07:00:56;95404.00;;;6.77;100.00
5872;BME280;2962;51.312;7.378;2023-04-01T07:03:43;95393.56;;;6.72;100.00
5872;BME280;2962;51.312;7.378;2023-04-01T07:08:53;95392.41;;;6.73;100.00
5872;BME280;2962;51.312;7.378;2023-04-01T07:11:31;95395.88;;;6.77;100.00
5872;BME280;2962;51.312;7.378;2023-04-01T07:14:04;95390.91;;;6.62;100.00
5872;BME280;2962;51.312;7.378;2023-04-01T07:16:41;95396.66;;;6.71;100.00
5872;BME280;2962;51.312;7.378;2023-04-01T07:21:54;95399.41;;;6.60;100.00
5872;BME280;2962;51.312;7.378;2023-04-01T07:24:26;95416.75;;;6.80;100.00
5872;BME280;2962;51.312;7.378;2023-04-01T07:26:56;95399.38;;;6.71;100.00
5872;BME280;2962;51.312;7.378;2023-04-01T07:29:22;95419.41;;;6.88;100.00
5872;BME280;2962;51.312;7.378;2023-04-01T07:32:06;95420.56;;;6.87;100.00
5872;BME280;2962;51.312;7.378;2023-04-01T07:37:30;95418.28;;;6.78;100.00
5872;BME280;2962;51.312;7.378;2023-04-01T07:45:03;95428.31;;;6.88;100.00
5872;BME280;2962;51.312;7.378;2023-04-01T07:50:27;95430.28;;;6.80;100.00
5872;BME280;2962;51.312;7.378;2023-04-01T07:58:39;95428.69;;;6.87;100.00
5872;BME280;2962;51.312;7.378;2023-04-01T08:14:59;95429.09;;;6.81;100.00
5872;BME280;2962;51.312;7.378;2023-04-01T08:20:07;95460.72;;;7.06;100.00
5872;BME280;2962;51.312;7.378;2023-04-01T08:22:42;95450.31;;;7.01;100.00
5872;BME280;2962;51.312;7.378;2023-04-01T08:25:14;95451.84;;;7.02;100.00
5872;BME280;2962;51.312;7.378;2023-04-01T08:27:45;95458.41;;;7.01;100.00
5872;BME280;2962;51.312;7.378;2023-04-01T08:30:23;95461.13;;;7.01;100.00
5872;BME280;2962;51.312;7.378;2023-04-01T08:32:56;95464.63;;;6.91;100.00
5872;BME280;2962;51.312;7.378;2023-04-01T08:35:31;95471.56;;;6.99;100.00
5872;BME280;2962;51.312;7.378;2023-04-01T08:38:11;95475.09;;;6.92;100.00
5872;BME280;2962;51.312;7.378;2023-04-01T08:40:54;95474.69;;;6.90;100.00
5872;BME280;2962;51.312;7.378;2023-04-01T09:22:04;95503.25;;;7.05;100.00
5872;BME280;2962;51.312;7.378;2023-04-01T09:27:52;95529.47;;;7.26;100.00
5872;BME280;2962;51.312;7.378;2023-04-01T09:30:31;95517.53;;;7.20;100.00
5872;BME280;2962;51.312;7.378;2023-04-01T09:35:48;95538.81;;;7.18;100.00
5872;BME280;2962;51.312;7.378;2023-04-01T09:41:32;95550.34;;;7.33;100.00
5872;BME280;2962;51.312;7.378;2023-04-01T09:47:06;95555.78;;;7.33;100.00
5872;BME280;2962;51.312;7.378;2023-04-01T09:52:47;95555.84;;;7.19;100.00
5872;BME280;2962;51.312;7.378;2023-04-01T09:55:28;95550.44;;;7.12;100.00
5872;BME280;2962;51.312;7.378;2023-04-01T09:58:16;95557.41;;;7.16;100.00
5872;BME280;2962;51.312;7.378;2023-04-01T10:09:13;95540.06;;;6.89;100.00
5872;BME280;2962;51.312;7.378;2023-04-01T10:12:04;95569.00;;;7.13;100.00
5872;BME280;2962;51.312;7.378;2023-04-01T10:25:57;95582.91;;;7.22;100.00
5872;BME280;2962;51.312;7.378;2023-04-01T10:40:37;95594.81;;;7.50;100.00
5872;BME280;2962;51.312;7.378;2023-04-01T10:53:46;95601.38;;;7.52;100.00
5872;BME280;2962;51.312;7.378;2023-04-01T11:03:10;95608.38;;;7.50;100.00
5872;BME280;2962;51.312;7.378;2023-04-01T11:05:58;95609.13;;;7.54;100.00
5872;BME280;2962;51.312;7.378;2023-04-01T11:11:52;95599.88;;;7.33;100.00
5872;BME280;2962;51.312;7.378;2023-04-01T11:25:23;95640.50;;;7.44;100.00
5872;BME280;2962;51.312;7.378;2023-04-01T11:31:09;95632.00;;;7.42;100.00
5872;BME280;2962;51.312;7.378;2023-04-01T11:33:43;95626.97;;;7.37;100.00
5872;BME280;2962;51.312;7.378;2023-04-01T11:36:29;95629.31;;;7.39;100.00
5872;BME280;2962;51.312;7.378;2023-04-01T11:39:14;95625.84;;;7.31;100.00
5872;BME280;2962;51.312;7.378;2023-04-01T11:44:39;95641.25;;;7.48;100.00
5872;BME280;2962;51.312;7.378;2023-04-01T11:47:45;95648.63;;;7.51;100.00
5872;BME280;2962;51.312;7.378;2023-04-01T11:50:21;95640.91;;;7.39;100.00
5872;BME280;2962;51.312;7.378;2023-04-01T11:53:06;95655.56;;;7.59;100.00
5872;BME280;2962;51.312;7.378;2023-04-01T11:55:59;95653.16;;;7.76;100.00
5872;BME280;2962;51.312;7.378;2023-04-01T11:58:42;95669.09;;;7.63;100.00
5872;BME280;2962;51.312;7.378;2023-04-01T12:01:20;95671.81;;;7.59;100.00
5872;BME280;2962;51.312;7.378;2023-04-01T12:09:52;95673.31;;;7.75;100.00
5872;BME280;2962;51.312;7.378;2023-04-01T12:12:46;95678.75;;;7.64;100.00
5872;BME280;2962;51.312;7.378;2023-04-01T12:15:26;95678.78;;;7.61;100.00
5872;BME280;2962;51.312;7.378;2023-04-01T12:17:59;95674.94;;;7.54;100.00
5872;BME280;2962;51.312;7.378;2023-04-01T12:20:49;95688.06;;;7.59;100.00
5872;BME280;2962;51.312;7.378;2023-04-01T12:23:26;95685.78;;;7.47;100.00
5872;BME280;2962;51.312;7.378;2023-04-01T12:32:20;95691.56;;;7.49;100.00
5872;BME280;2962;51.312;7.378;2023-04-01T12:54:02;95715.16;;;7.63;100.00
5872;BME280;2962;51.312;7.378;2023-04-01T12:56:44;95715.16;;;7.63;100.00
5872;BME280;2962;51.312;7.378;2023-04-01T13:02:12;95730.66;;;7.63;100.00
5872;BME280;2962;51.312;7.378;2023-04-01T13:07:34;95727.97;;;7.52;100.00
5872;BME280;2962;51.312;7.378;2023-04-01T13:15:26;95730.69;;;7.55;100.00
5872;BME280;2962;51.312;7.378;2023-04-01T13:18:15;95751.19;;;7.60;100.00
5872;BME280;2962;51.312;7.378;2023-04-01T13:20:51;95753.88;;;7.60;100.00
5872;BME280;2962;51.312;7.378;2023-04-01T13:26:56;95753.53;;;7.44;100.00
5872;BME280;2962;51.312;7.378;2023-04-01T13:29:45;95761.66;;;7.51;100.00
5872;BME280;2962;51.312;7.378;2023-04-01T13:32:39;95783.75;;;7.46;100.00
5872;BME280;2962;51.312;7.378;2023-04-01T13:38:32;95777.53;;;7.52;100.00
5872;BME280;2962;51.312;7.378;2023-04-01T13:43:59;95781.00;;;7.56;100.00
5872;BME280;2962;51.312;7.378;2023-04-01T13:52:44;95779.84;;;7.57;100.00
5872;BME280;2962;51.312;7.378;2023-04-01T13:58:24;95783.34;;;7.62;100.00
5872;BME280;2962;51.312;7.378;2023-04-01T14:01:13;95794.94;;;7.69;100.00
5872;BME280;2962;51.312;7.378;2023-04-01T14:09:50;95798.03;;;7.57;100.00
5872;BME280;2962;51.312;7.378;2023-04-01T14:12:47;95803.06;;;7.62;100.00
5872;BME280;2962;51.312;7.378;2023-04-01T14:20:37;95810.41;;;7.72;100.00
5872;BME280;2962;51.312;7.378;2023-04-01T14:36:45;95832.09;;;7.72;100.00
5872;BME280;2962;51.312;7.378;2023-04-01T14:45:36;95822.03;;;7.58;100.00
5872;BME280;2962;51.312;7.378;2023-04-01T14:47:50;95832.88;;;7.55;100.00
5872;BME280;2962;51.312;7.378;2023-04-01T14:50:24;95844.13;;;7.53;100.00
5872;BME280;2962;51.312;7.378;2023-04-01T14:55:49;95836.00;;;7.46;100.00
5872;BME280;2962;51.312;7.378;2023-04-01T14:58:17;95842.94;;;7.51;100.00
5872;BME280;2962;51.312;7.378;2023-04-01T15:01:14;95842.56;;;7.56;100.00
5872;BME280;2962;51.312;7.378;2023-04-01T15:04:01;95839.47;;;7.54;100.00
5872;BME280;2962;51.312;7.378;2023-04-01T15:14:46;95847.59;;;7.50;100.00
5872;BME280;2962;51.312;7.378;2023-04-01T15:17:27;95857.28;;;7.51;100.00
5872;BME280;2962;51.312;7.378;2023-04-01T15:23:32;95858.81;;;7.42;100.00
5872;BME280;2962;51.312;7.378;2023-04-01T15:26:20;95863.84;;;7.40;100.00
5872;BME280;2962;51.312;7.378;2023-04-01T15:29:50;95860.75;;;7.41;100.00
5872;BME280;2962;51.312;7.378;2023-04-01T15:43:31;95882.81;;;7.40;100.00
5872;BME280;2962;51.312;7.378;2023-04-01T15:52:14;95891.34;;;7.38;100.00
5872;BME280;2962;51.312;7.378;2023-04-01T15:58:22;95903.72;;;7.43;100.00
5872;BME280;2962;51.312;7.378;2023-04-01T16:00:30;95904.09;;;7.45;100.00
5872;BME280;2962;51.312;7.378;2023-04-01T16:08:30;95913.38;;;7.37;100.00
5872;BME280;2962;51.312;7.378;2023-04-01T16:11:19;95924.22;;;7.44;100.00
5872;BME280;2962;51.312;7.378;2023-04-01T16:13:59;95917.28;;;7.50;100.00
5872;BME280;2962;51.312;7.378;2023-04-01T16:17:01;95918.84;;;7.51;100.00
5872;BME280;2962;51.312;7.378;2023-04-01T16:19:53;95914.94;;;7.48;100.00
5872;BME280;2962;51.312;7.378;2023-04-01T16:22:26;95922.31;;;7.51;100.00
5872;BME280;2962;51.312;7.378;2023-04-01T16:25:17;95920.00;;;7.50;100.00
5872;BME280;2962;51.312;7.378;2023-04-01T16:28:15;95938.19;;;7.46;100.00
5872;BME280;2962;51.312;7.378;2023-04-01T16:30:56;95943.19;;;7.44;100.00
5872;BME280;2962;51.312;7.378;2023-04-01T16:33:40;95923.06;;;7.30;100.00
5872;BME280;2962;51.312;7.378;2023-04-01T16:36:22;95934.69;;;7.45;100.00
5872;BME280;2962;51.312;7.378;2023-04-01T16:41:41;95931.19;;;7.41;100.00
5872;BME280;2962;51.312;7.378;2023-04-01T16:44:20;95935.09;;;7.47;100.00
5872;BME280;2962;51.312;7.378;2023-04-01T16:46:52;95940.50;;;7.51;100.00
5872;BME280;2962;51.312;7.378;2023-04-01T16:52:15;95961.00;;;7.45;100.00
5872;BME280;2962;51.312;7.378;2023-04-01T16:54:51;95957.53;;;7.44;100.00
5872;BME280;2962;51.312;7.378;2023-04-01T16:57:23;95965.28;;;7.42;100.00
5872;BME280;2962;51.312;7.378;2023-04-01T17:00:16;95969.91;;;7.49;100.00
5872;BME280;2962;51.312;7.378;2023-04-01T17:05:20;95964.13;;;7.47;100.00
5872;BME280;2962;51.312;7.378;2023-04-01T17:10:52;95976.88;;;7.43;100.00
5872;BME280;2962;51.312;7.378;2023-04-01T17:13:35;95984.22;;;7.39;100.00
5872;BME280;2962;51.312;7.378;2023-04-01T17:26:52;96010.91;;;7.37;100.00
5872;BME280;2962;51.312;7.378;2023-04-01T17:29:31;96020.97;;;7.36;100.00
5872;BME280;2962;51.312;7.378;2023-04-01T17:37:29;96002.34;;;7.20;100.00
5872;BME280;2962;51.312;7.378;2023-04-01T17:43:09;96030.25;;;7.31;100.00
5872;BME280;2962;51.312;7.378;2023-04-01T17:45:49;96026.00;;;7.34;100.00
5872;BME280;2962;51.312;7.378;2023-04-01T17:59:05;96050.38;;;7.38;100.00
5872;BME280;2962;51.312;7.378;2023-04-01T18:04:41;96061.63;;;7.40;100.00
5872;BME280;2962;51.312;7.378;2023-04-01T18:09:59;96074.44;;;7.43;100.00
5872;BME280;2962;51.312;7.378;2023-04-01T18:15:45;96076.72;;;7.41;100.00
5872;BME280;2962;51.312;7.378;2023-04-01T18:18:42;96074.75;;;7.34;100.00
5872;BME280;2962;51.312;7.378;2023-04-01T18:21:30;96070.50;;;7.29;100.00
5872;BME280;2962;51.312;7.378;2023-04-01T18:24:06;96088.72;;;7.40;100.00
5872;BME280;2962;51.312;7.378;2023-04-01T18:26:38;96084.47;;;7.39;100.00
5872;BME280;2962;51.312;7.378;2023-04-01T18:32:07;96096.44;;;7.34;100.00
5872;BME280;2962;51.312;7.378;2023-04-01T18:34:47;96106.50;;;7.33;100.00
5872;BME280;2962;51.312;7.378;2023-04-01T18:37:25;96107.28;;;7.38;100.00
5872;BME280;2962;51.312;7.378;2023-04-01T18:40:15;96101.84;;;7.34;100.00
5872;BME280;2962;51.312;7.378;2023-04-01T18:46:01;96116.59;;;7.40;100.00
5872;BME280;2962;51.312;7.378;2023-04-01T18:48:32;96110.00;;;7.30;100.00
5872;BME280;2962;51.312;7.378;2023-04-01T18:51:20;96123.91;;;7.32;100.00
5872;BME280;2962;51.312;7.378;2023-04-01T18:53:54;96119.22;;;7.26;100.00
5872;BME280;2962;51.312;7.378;2023-04-01T18:56:26;96134.38;;;7.38;100.00
5872;BME280;2962;51.312;7.378;2023-04-01T18:58:59;96121.63;;;7.34;100.00
5872;BME280;2962;51.312;7.378;2023-04-01T19:01:39;96139.81;;;7.38;100.00
5872;BME280;2962;51.312;7.378;2023-04-01T19:04:23;96113.44;;;7.24;100.00
5872;BME280;2962;51.312;7.378;2023-04-01T19:06:57;96142.53;;;7.41;100.00
5872;BME280;2962;51.312;7.378;2023-04-01T19:09:52;96146.81;;;7.42;100.00
5872;BME280;2962;51.312;7.378;2023-04-01T19:15:10;96156.47;;;7.40;100.00
5872;BME280;2962;51.312;7.378;2023-04-01T19:17:57;96151.44;;;7.34;100.00
5872;BME280;2962;51.312;7.378;2023-04-01T19:20:34;96170.41;;;7.42;100.00
5872;BME280;2962;51.312;7.378;2023-04-01T19:25:55;96170.38;;;7.34;100.00
5872;BME280;2962;51.312;7.378;2023-04-01T19:28:47;96171.06;;;7.21;100.00
5872;BME280;2962;51.312;7.378;2023-04-01T19:34:18;96159.84;;;7.19;100.00
5872;BME280;2962;51.312;7.378;2023-04-01T19:36:52;96171.50;;;7.30;100.00
5872;BME280;2962;51.312;7.378;2023-04-01T19:42:04;96167.25;;;7.32;100.00
5872;BME280;2962;51.312;7.378;2023-04-01T19:44:55;96189.75;;;7.40;100.00
5872;BME280;2962;51.312;7.378;2023-04-01T19:47:44;96169.19;;;7.28;100.00
5872;BME280;2962;51.312;7.378;2023-04-01T19:52:49;96179.69;;;7.37;100.00
5872;BME280;2962;51.312;7.378;2023-04-01T19:55:42;96186.94;;;7.26;100.00
5872;BME280;2962;51.312;7.378;2023-04-01T19:58:28;96174.47;;;7.10;100.00
5872;BME280;2962;51.312;7.378;2023-04-01T20:01:00;96192.00;;;7.24;100.00
5872;BME280;2962;51.312;7.378;2023-04-01T20:03:42;96203.97;;;7.26;100.00
5872;BME280;2962;51.312;7.378;2023-04-01T20:06:41;96207.88;;;7.29;100.00
5872;BME280;2962;51.312;7.378;2023-04-01T20:24:57;96257.81;;;7.28;100.00
5872;BME280;2962;51.312;7.378;2023-04-01T20:27:27;96253.50;;;7.20;100.00
5872;BME280;2962;51.312;7.378;2023-04-01T20:30:01;96257.75;;;7.21;100.00
5872;BME280;2962;51.312;7.378;2023-04-01T20:32:54;96257.72;;;7.17;100.00
5872;BME280;2962;51.312;7.378;2023-04-01T20:35:39;96259.97;;;7.08;100.00
5872;BME280;2962;51.312;7.378;2023-04-01T20:41:04;96261.44;;;7.02;100.00
5872;BME280;2962;51.312;7.378;2023-04-01T20:43:47;96253.78;;;7.07;100.00
5872;BME280;2962;51.312;7.378;2023-04-01T20:52:02;96271.94;;;7.07;100.00
5872;BME280;2962;51.312;7.378;2023-04-01T21:12:10;96294.38;;;7.04;100.00
5872;BME280;2962;51.312;7.378;2023-04-01T21:15:30;96311.31;;;6.97;100.00
5872;BME280;2962;51.312;7.378;2023-04-01T21:21:12;96322.59;;;7.03;100.00
5872;BME280;2962;51.312;7.378;2023-04-01T21:23:49;96320.69;;;7.07;100.00
5872;BME280;2962;51.312;7.378;2023-04-01T21:26:29;96332.97;;;6.97;100.00
5872;BME280;2962;51.312;7.378;2023-04-01T21:37:36;96350.47;;;7.03;100.00
5872;BME280;2962;51.312;7.378;2023-04-01T22:11:05;96412.75;;;7.03;100.00